createdAt,value
2023-06-01T00:00:31.936Z,15.30
2023-06-01T00:02:58.916Z,15.20
2023-06-01T00:05:26.007Z,15.10
2023-06-01T00:07:53.195Z,15.20
2023-06-01T00:10:20.180Z,15.00
2023-06-01T00:12:47.072Z,14.90
2023-06-01T00:15:14.239Z,14.80
2023-06-01T00:17:41.261Z,14.80
2023-06-01T00:20:09.331Z,14.70
2023-06-01T00:22:39.814Z,14.60
2023-06-01T00:25:09.175Z,14.60
2023-06-01T00:27:37.022Z,14.50
2023-06-01T00:30:04.783Z,14.70
2023-06-01T00:32:31.808Z,14.30
2023-06-01T00:34:58.770Z,14.30
2023-06-01T00:37:25.693Z,14.20
2023-06-01T00:39:52.607Z,14.10
2023-06-01T00:42:19.562Z,14.00
2023-06-01T00:44:46.531Z,14.00
2023-06-01T00:47:13.615Z,13.90
2023-06-01T00:49:40.878Z,13.80
2023-06-01T00:52:08.241Z,13.70
2023-06-01T00:54:35.443Z,13.60
2023-06-01T00:57:03.038Z,13.60
2023-06-01T00:59:30.041Z,13.60
2023-06-01T01:01:56.984Z,13.70
2023-06-01T01:04:27.425Z,14.00
2023-06-01T01:07:10.623Z,13.90
2023-06-01T01:09:50.428Z,13.70
2023-06-01T01:12:51.622Z,13.70
2023-06-01T01:15:26.362Z,13.60
2023-06-01T01:18:20.630Z,13.50
2023-06-01T01:20:59.408Z,13.40
2023-06-01T01:24:03.336Z,13.40
2023-06-01T01:26:51.430Z,13.40
2023-06-01T01:29:22.393Z,13.40
2023-06-01T01:31:51.083Z,13.40
2023-06-01T01:34:44.765Z,13.40
2023-06-01T01:37:11.739Z,13.70
2023-06-01T01:39:38.687Z,13.50
2023-06-01T01:42:06.426Z,13.50
2023-06-01T01:44:34.585Z,13.50
2023-06-01T01:47:15.283Z,13.60
2023-06-01T01:49:45.612Z,13.50
2023-06-01T01:52:35.944Z,14.10
2023-06-01T01:55:03.636Z,13.60
2023-06-01T01:57:31.851Z,13.70
2023-06-01T01:59:59.195Z,13.70
2023-06-01T02:02:26.379Z,13.90
2023-06-01T02:04:53.410Z,13.80
2023-06-01T02:07:20.824Z,14.40
2023-06-01T02:09:47.841Z,13.80
2023-06-01T02:12:15.456Z,13.80
2023-06-01T02:14:42.284Z,13.80
2023-06-01T02:17:09.196Z,13.80
2023-06-01T02:19:36.541Z,13.70
2023-06-01T02:22:03.685Z,14.00
2023-06-01T02:24:31.294Z,13.60
2023-06-01T02:26:58.510Z,13.80
2023-06-01T02:29:25.877Z,13.50
2023-06-01T02:31:53.818Z,13.50
2023-06-01T02:34:21.293Z,13.50
2023-06-01T02:36:49.761Z,13.50
2023-06-01T02:39:18.303Z,13.60
2023-06-01T02:41:45.751Z,13.60
2023-06-01T02:44:12.653Z,13.60
2023-06-01T02:46:39.665Z,13.60
2023-06-01T02:49:07.185Z,13.60
2023-06-01T02:51:34.712Z,13.70
2023-06-01T02:54:01.659Z,13.60
2023-06-01T02:56:28.619Z,13.50
2023-06-01T02:58:55.605Z,13.50
2023-06-01T03:01:23.149Z,13.50
2023-06-01T03:03:53.516Z,13.40
2023-06-01T03:06:22.649Z,13.50
2023-06-01T03:08:49.658Z,13.50
2023-06-01T03:11:16.661Z,13.50
2023-06-01T03:13:43.513Z,13.50
2023-06-01T03:16:11.176Z,13.50
2023-06-01T03:18:39.156Z,13.50
2023-06-01T03:21:06.614Z,14.00
2023-06-01T03:23:33.629Z,13.40
2023-06-01T03:26:00.862Z,13.40
2023-06-01T03:28:27.886Z,13.30
2023-06-01T03:30:54.810Z,13.30
2023-06-01T03:33:21.896Z,13.30
2023-06-01T03:35:50.782Z,13.40
2023-06-01T03:38:17.682Z,13.40
2023-06-01T03:40:44.636Z,13.40
2023-06-01T03:43:12.259Z,13.50
2023-06-01T03:45:39.510Z,13.50
2023-06-01T03:48:06.715Z,13.50
2023-06-01T03:50:33.666Z,13.50
2023-06-01T03:53:00.739Z,14.10
2023-06-01T03:55:27.936Z,13.60
2023-06-01T03:57:55.049Z,13.70
2023-06-01T04:00:24.007Z,13.60
2023-06-01T04:02:59.880Z,13.60
2023-06-01T04:05:27.675Z,13.70
2023-06-01T04:07:56.476Z,13.70
2023-06-01T04:10:24.066Z,13.70
2023-06-01T04:12:51.705Z,14.30
2023-06-01T04:15:21.363Z,13.80
2023-06-01T04:17:48.500Z,13.80
2023-06-01T04:20:16.888Z,13.80
2023-06-01T04:22:45.462Z,14.20
2023-06-01T04:25:18.760Z,13.90
2023-06-01T04:27:48.526Z,13.90
2023-06-01T04:30:17.350Z,13.90
2023-06-01T04:32:49.004Z,13.90
2023-06-01T04:35:16.910Z,14.40
2023-06-01T04:37:44.444Z,13.80
2023-06-01T04:40:13.335Z,13.80
2023-06-01T04:42:43.244Z,13.80
2023-06-01T04:45:11.699Z,13.90
2023-06-01T04:47:40.660Z,14.00
2023-06-01T04:50:11.741Z,14.00
2023-06-01T04:52:39.910Z,14.00
2023-06-01T04:55:08.169Z,14.00
2023-06-01T04:57:36.709Z,14.00
2023-06-01T05:00:07.767Z,14.10
2023-06-01T05:02:34.702Z,14.10
2023-06-01T05:05:01.619Z,14.10
2023-06-01T05:07:28.735Z,14.10
2023-06-01T05:09:56.041Z,14.00
2023-06-01T05:12:22.979Z,14.00
2023-06-01T05:14:50.816Z,14.10
2023-06-01T05:17:17.761Z,14.10
2023-06-01T05:19:44.638Z,14.10
2023-06-01T05:22:12.997Z,14.10
2023-06-01T05:24:40.154Z,14.20
2023-06-01T05:27:07.617Z,14.20
2023-06-01T05:29:34.680Z,14.30
2023-06-01T05:32:01.779Z,14.60
2023-06-01T05:34:28.746Z,14.40
2023-06-01T05:36:55.640Z,14.50
2023-06-01T05:39:28.285Z,14.60
2023-06-01T05:41:56.204Z,14.80
2023-06-01T05:44:24.286Z,14.70
2023-06-01T05:46:52.455Z,14.70
2023-06-01T05:49:19.929Z,14.80
2023-06-01T05:51:47.404Z,15.10
2023-06-01T05:54:14.390Z,15.00
2023-06-01T05:56:44.012Z,14.80
2023-06-01T05:59:11.075Z,14.80
2023-06-01T06:01:38.019Z,14.70
2023-06-01T06:04:05.201Z,14.80
2023-06-01T06:06:32.798Z,14.90
2023-06-01T06:09:00.026Z,15.00
2023-06-01T06:11:27.206Z,15.00
2023-06-01T06:13:54.231Z,15.10
2023-06-01T06:16:21.524Z,15.10
2023-06-01T06:18:48.585Z,15.00
2023-06-01T06:21:17.589Z,15.10
2023-06-01T06:23:46.365Z,15.30
2023-06-01T06:26:13.355Z,15.40
2023-06-01T06:28:40.278Z,15.10
2023-06-01T06:31:07.266Z,15.50
2023-06-01T06:33:34.186Z,15.10
2023-06-01T06:36:01.244Z,15.20
2023-06-01T06:38:28.181Z,15.20
2023-06-01T06:40:58.138Z,15.20
2023-06-01T06:43:25.701Z,15.10
2023-06-01T06:45:52.665Z,15.20
2023-06-01T06:48:19.728Z,15.70
2023-06-01T06:50:46.624Z,15.40
2023-06-01T06:53:13.556Z,15.40
2023-06-01T06:55:40.566Z,15.50
2023-06-01T06:58:07.560Z,15.50
2023-06-01T07:00:34.565Z,15.60
2023-06-01T07:03:01.818Z,15.60
2023-06-01T07:05:28.919Z,15.70
2023-06-01T07:07:58.038Z,15.80
2023-06-01T07:10:26.847Z,16.00
2023-06-01T07:12:54.006Z,16.00
2023-06-01T07:15:21.165Z,16.20
2023-06-01T07:17:48.383Z,16.30
2023-06-01T07:20:15.441Z,16.50
2023-06-01T07:22:42.454Z,16.60
2023-06-01T07:25:11.528Z,16.60
2023-06-01T07:27:38.598Z,16.70
2023-06-01T07:30:08.379Z,16.70
2023-06-01T07:32:35.517Z,16.70
2023-06-01T07:35:02.879Z,17.20
2023-06-01T07:37:29.818Z,17.00
2023-06-01T07:39:56.772Z,17.10
2023-06-01T07:42:23.820Z,17.20
2023-06-01T07:44:51.891Z,17.20
2023-06-01T07:47:18.933Z,17.60
2023-06-01T07:49:46.046Z,17.40
2023-06-01T07:52:12.996Z,17.60
2023-06-01T07:54:39.943Z,17.80
2023-06-01T07:57:07.596Z,18.10
2023-06-01T07:59:34.560Z,18.30
2023-06-01T08:02:02.163Z,18.50
2023-06-01T08:04:34.512Z,18.60
2023-06-01T08:07:04.604Z,18.70
2023-06-01T08:09:32.386Z,18.70
2023-06-01T08:11:59.452Z,18.90
2023-06-01T08:14:26.754Z,19.10
2023-06-01T08:16:53.774Z,19.10
2023-06-01T08:19:20.953Z,19.20
2023-06-01T08:21:48.108Z,19.20
2023-06-01T08:24:15.183Z,19.30
2023-06-01T08:26:42.462Z,19.30
2023-06-01T08:29:09.454Z,19.20
2023-06-01T08:31:38.274Z,19.20
2023-06-01T08:34:05.949Z,19.30
2023-06-01T08:36:33.305Z,19.40
2023-06-01T08:39:00.432Z,19.50
2023-06-01T08:41:37.724Z,19.50
2023-06-01T08:44:07.376Z,19.60
2023-06-01T08:46:37.602Z,19.80
2023-06-01T08:49:06.796Z,20.20
2023-06-01T08:51:34.991Z,20.10
2023-06-01T08:54:06.334Z,20.20
2023-06-01T08:56:33.820Z,20.30
2023-06-01T08:59:01.480Z,20.40
2023-06-01T09:01:28.941Z,20.40
2023-06-01T09:03:56.594Z,20.50
2023-06-01T09:06:23.639Z,21.00
2023-06-01T09:08:51.377Z,20.80
2023-06-01T09:11:18.627Z,20.90
2023-06-01T09:13:45.724Z,20.90
2023-06-01T09:16:13.168Z,20.80
2023-06-01T09:18:56.239Z,20.70
2023-06-01T09:21:23.406Z,20.80
2023-06-01T09:23:50.523Z,21.10
2023-06-01T09:26:18.881Z,21.20
2023-06-01T09:29:00.081Z,21.20
2023-06-01T09:31:48.061Z,21.40
2023-06-01T09:34:20.627Z,21.40
2023-06-01T09:36:49.493Z,21.50
2023-06-01T09:39:19.300Z,21.50
2023-06-01T09:41:53.958Z,21.60
2023-06-01T09:44:25.170Z,21.80
2023-06-01T09:47:03.583Z,22.00
2023-06-01T09:49:37.863Z,22.40
2023-06-01T09:52:04.855Z,22.70
2023-06-01T09:54:38.394Z,22.90
2023-06-01T09:57:11.649Z,23.20
2023-06-01T09:59:45.277Z,23.40
2023-06-01T10:02:20.761Z,23.40
2023-06-01T10:04:59.344Z,23.50
2023-06-01T10:07:35.197Z,23.60
2023-06-01T10:10:04.963Z,23.80
2023-06-01T10:12:34.792Z,24.10
2023-06-01T10:15:16.111Z,24.00
2023-06-01T10:17:49.920Z,24.10
2023-06-01T10:20:17.829Z,24.10
2023-06-01T10:22:45.623Z,24.10
2023-06-01T10:25:16.371Z,24.30
2023-06-01T10:27:58.826Z,24.50
2023-06-01T10:30:25.931Z,24.60
2023-06-01T10:32:56.116Z,24.50
2023-06-01T10:35:29.233Z,24.40
2023-06-01T10:38:08.508Z,24.20
2023-06-01T10:40:39.502Z,24.30
2023-06-01T10:43:09.722Z,24.40
2023-06-01T10:45:41.546Z,24.60
2023-06-01T10:48:13.486Z,24.70
2023-06-01T10:50:41.861Z,24.80
2023-06-01T10:53:26.620Z,24.80
2023-06-01T10:56:27.030Z,24.70
2023-06-01T10:59:18.124Z,24.60
2023-06-01T11:01:47.854Z,24.50
2023-06-01T11:04:16.156Z,24.50
2023-06-01T11:06:44.923Z,24.60
2023-06-01T11:09:17.752Z,24.70
2023-06-01T11:11:53.754Z,24.70
2023-06-01T11:14:25.002Z,24.70
2023-06-01T11:16:55.992Z,24.80
2023-06-01T11:19:27.590Z,24.80
2023-06-01T11:22:08.153Z,24.80
2023-06-01T11:24:37.334Z,24.70
2023-06-01T11:27:09.784Z,24.80
2023-06-01T11:29:38.140Z,24.50
2023-06-01T11:32:07.052Z,24.80
2023-06-01T11:34:40.487Z,24.70
2023-06-01T11:37:20.473Z,24.60
2023-06-01T11:39:50.781Z,24.60
2023-06-01T11:42:19.735Z,24.80
2023-06-01T11:44:58.776Z,24.90
2023-06-01T11:47:32.480Z,24.90
2023-06-01T11:49:59.803Z,24.90
2023-06-01T11:52:27.023Z,25.10
2023-06-01T11:55:03.730Z,25.20
2023-06-01T11:57:30.954Z,25.20
2023-06-01T12:00:00.432Z,25.20
2023-06-01T12:02:30.889Z,25.20
2023-06-01T12:05:09.506Z,24.90
2023-06-01T12:07:47.622Z,24.60
2023-06-01T12:10:17.404Z,24.30
2023-06-01T12:12:44.805Z,24.10
2023-06-01T12:15:13.228Z,24.10
2023-06-01T12:17:59.914Z,24.20
2023-06-01T12:20:32.529Z,24.20
2023-06-01T12:23:02.016Z,24.20
2023-06-01T12:25:28.977Z,24.30
2023-06-01T12:28:11.154Z,24.40
2023-06-01T12:30:38.318Z,24.40
2023-06-01T12:33:06.958Z,24.50
2023-06-01T12:35:34.216Z,24.50
2023-06-01T12:38:09.985Z,24.50
2023-06-01T12:40:37.913Z,24.40
2023-06-01T12:43:06.558Z,24.10
2023-06-01T12:45:39.979Z,23.80
2023-06-01T12:48:08.074Z,23.70
2023-06-01T12:50:44.060Z,23.60
2023-06-01T12:53:11.304Z,23.60
2023-06-01T12:55:38.265Z,23.70
2023-06-01T12:58:05.208Z,23.80
2023-06-01T13:00:55.371Z,23.70
2023-06-01T13:03:19.106Z,23.60
2023-06-01T13:05:50.721Z,23.50
2023-06-01T13:08:17.935Z,23.40
2023-06-01T13:10:46.743Z,23.30
2023-06-01T13:13:16.673Z,23.30
2023-06-01T13:15:45.675Z,23.30
2023-06-01T13:18:14.001Z,23.30
2023-06-01T13:20:41.061Z,23.30
2023-06-01T13:23:08.690Z,23.10
2023-06-01T13:25:36.205Z,23.00
2023-06-01T13:28:03.373Z,22.90
2023-06-01T13:30:30.733Z,22.70
2023-06-01T13:32:58.399Z,22.60
2023-06-01T13:35:26.008Z,22.40
2023-06-01T13:37:53.861Z,22.10
2023-06-01T13:40:24.129Z,21.80
2023-06-01T13:43:03.214Z,21.70
2023-06-01T13:45:30.296Z,21.70
2023-06-01T13:47:58.426Z,21.80
2023-06-01T13:50:25.624Z,21.70
2023-06-01T13:52:53.724Z,21.60
2023-06-01T13:55:21.752Z,21.50
2023-06-01T13:57:50.097Z,21.60
2023-06-01T14:00:20.029Z,21.70
2023-06-01T14:02:47.838Z,21.70
2023-06-01T14:05:21.373Z,21.80
2023-06-01T14:07:53.112Z,22.00
2023-06-01T14:10:54.068Z,22.10
2023-06-01T14:13:24.114Z,22.00
2023-06-01T14:15:51.661Z,21.50
2023-06-01T14:18:18.737Z,22.10
2023-06-01T14:20:45.753Z,22.20
2023-06-01T14:23:12.867Z,22.10
2023-06-01T14:25:39.945Z,22.10
2023-06-01T14:28:07.373Z,22.00
2023-06-01T14:30:34.365Z,21.20
2023-06-01T14:33:01.368Z,21.80
2023-06-01T14:35:28.511Z,21.70
2023-06-01T14:37:56.656Z,21.60
2023-06-01T14:40:23.746Z,21.50
2023-06-01T14:42:50.701Z,21.30
2023-06-01T14:45:19.949Z,21.10
2023-06-01T14:47:47.152Z,20.90
2023-06-01T14:50:14.298Z,20.80
2023-06-01T14:52:41.590Z,20.80
2023-06-01T14:55:08.825Z,20.70
2023-06-01T14:57:36.219Z,20.50
2023-06-01T15:00:05.272Z,20.40
2023-06-01T15:02:34.114Z,20.30
2023-06-01T15:05:01.313Z,20.30
2023-06-01T15:07:28.248Z,20.20
2023-06-01T15:09:55.859Z,20.20
2023-06-01T15:12:42.079Z,20.10
2023-06-01T15:15:16.319Z,20.00
2023-06-01T15:17:51.021Z,19.40
2023-06-01T15:20:17.999Z,19.80
2023-06-01T15:22:45.029Z,19.90
2023-06-01T15:25:12.002Z,20.00
2023-06-01T15:27:40.536Z,20.20
2023-06-01T15:30:08.001Z,20.30
2023-06-01T15:32:34.912Z,20.30
2023-06-01T15:35:03.695Z,20.40
2023-06-01T15:37:31.207Z,20.40
2023-06-01T15:39:58.132Z,20.40
2023-06-01T15:42:25.266Z,20.40
2023-06-01T15:44:52.110Z,20.70
2023-06-01T15:47:19.092Z,20.40
2023-06-01T15:49:46.054Z,20.40
2023-06-01T15:52:12.934Z,20.30
2023-06-01T15:54:39.914Z,20.10
2023-06-01T15:57:08.143Z,20.10
2023-06-01T15:59:35.131Z,20.00
2023-06-01T16:02:02.069Z,19.90
2023-06-01T16:04:29.113Z,19.80
2023-06-01T16:06:57.486Z,19.80
2023-06-01T16:09:24.565Z,19.80
2023-06-01T16:11:51.507Z,19.70
2023-06-01T16:14:18.411Z,19.60
2023-06-01T16:16:45.581Z,19.50
2023-06-01T16:19:13.057Z,19.40
2023-06-01T16:21:39.954Z,19.40
2023-06-01T16:24:06.940Z,19.40
2023-06-01T16:26:35.752Z,19.30
2023-06-01T16:29:02.650Z,19.30
2023-06-01T16:31:29.611Z,19.20
2023-06-01T16:33:56.477Z,19.30
2023-06-01T16:36:23.409Z,19.10
2023-06-01T16:38:50.379Z,19.10
2023-06-01T16:41:17.275Z,19.10
2023-06-01T16:43:45.975Z,19.10
2023-06-01T16:46:13.017Z,19.10
2023-06-01T16:48:40.057Z,19.10
2023-06-01T16:51:07.265Z,19.00
2023-06-01T16:53:34.124Z,19.20
2023-06-01T16:56:01.318Z,18.80
2023-06-01T16:58:28.435Z,18.60
2023-06-01T17:00:55.576Z,18.60
2023-06-01T17:03:22.963Z,18.40
2023-06-01T17:05:49.977Z,18.40
2023-06-01T17:08:16.934Z,18.30
2023-06-01T17:10:44.883Z,18.20
2023-06-01T17:13:11.932Z,18.10
2023-06-01T17:15:38.966Z,18.00
2023-06-01T17:18:06.169Z,17.90
2023-06-01T17:20:33.176Z,17.90
2023-06-01T17:23:00.120Z,17.90
2023-06-01T17:25:27.142Z,17.90
2023-06-01T17:27:54.094Z,17.90
2023-06-01T17:30:21.230Z,17.90
2023-06-01T17:32:48.311Z,17.90
2023-06-01T17:35:15.295Z,17.80
2023-06-01T17:37:42.368Z,17.70
2023-06-01T17:40:09.891Z,17.60
2023-06-01T17:42:36.792Z,17.60
2023-06-01T17:45:04.227Z,17.50
2023-06-01T17:47:31.242Z,17.40
2023-06-01T17:49:58.249Z,17.40
2023-06-01T17:52:25.181Z,17.30
2023-06-01T17:54:52.478Z,17.20
2023-06-01T17:57:19.594Z,17.20
2023-06-01T17:59:46.753Z,17.20
2023-06-01T18:02:13.804Z,17.10
2023-06-01T18:04:40.774Z,17.00
2023-06-01T18:07:07.955Z,16.90
2023-06-01T18:09:34.978Z,16.90
2023-06-01T18:12:02.274Z,16.80
2023-06-01T18:14:29.328Z,16.70
2023-06-01T18:16:56.799Z,16.70
2023-06-01T18:19:24.877Z,16.70
2023-06-01T18:21:51.935Z,16.70
2023-06-01T18:24:18.893Z,16.70
2023-06-01T18:26:45.764Z,16.70
2023-06-01T18:29:12.689Z,16.70
2023-06-01T18:31:42.212Z,16.70
2023-06-01T18:34:09.413Z,16.60
2023-06-01T18:36:36.476Z,16.60
2023-06-01T18:39:03.682Z,16.70
2023-06-01T18:41:44.040Z,16.50
2023-06-01T18:44:11.121Z,16.40
2023-06-01T18:46:38.648Z,16.30
2023-06-01T18:49:06.361Z,16.20
2023-06-01T18:51:33.448Z,16.20
2023-06-01T18:54:01.371Z,16.10
2023-06-01T18:56:28.956Z,16.50
2023-06-01T18:58:59.325Z,16.00
2023-06-01T19:01:26.395Z,15.90
2023-06-01T19:03:54.265Z,15.80
2023-06-01T19:06:21.609Z,16.20
2023-06-01T19:08:50.291Z,15.90
2023-06-01T19:11:17.852Z,15.90
2023-06-01T19:13:47.727Z,15.40
2023-06-01T19:16:24.961Z,15.90
2023-06-01T19:18:57.143Z,15.90
2023-06-01T19:21:26.210Z,15.90
2023-06-01T19:23:55.437Z,15.90
2023-06-01T19:26:28.707Z,15.80
2023-06-01T19:29:07.706Z,15.80
2023-06-01T19:31:43.575Z,15.70
2023-06-01T19:34:11.736Z,15.60
2023-06-01T19:36:45.443Z,15.60
2023-06-01T19:39:39.345Z,16.00
2023-06-01T19:42:16.234Z,15.50
2023-06-01T19:44:45.525Z,15.40
2023-06-01T19:47:50.657Z,15.30
2023-06-01T19:50:32.793Z,15.20
2023-06-01T19:53:04.574Z,15.00
2023-06-01T19:55:32.430Z,14.90
2023-06-01T19:58:00.383Z,14.90
2023-06-01T20:00:29.380Z,14.80
2023-06-01T20:02:59.641Z,14.70
2023-06-01T20:05:27.352Z,14.70
2023-06-01T20:08:02.838Z,14.70
2023-06-01T20:10:33.202Z,14.70
2023-06-01T20:13:01.828Z,15.20
2023-06-01T20:15:32.593Z,14.70
2023-06-01T20:18:01.576Z,14.80
2023-06-01T20:20:34.246Z,14.80
2023-06-01T20:23:09.641Z,14.90
2023-06-01T20:25:41.668Z,15.10
2023-06-01T20:28:13.784Z,15.00
2023-06-01T20:31:01.131Z,15.00
2023-06-01T20:33:28.522Z,15.00
2023-06-01T20:36:04.128Z,14.90
2023-06-01T20:38:33.454Z,14.90
2023-06-01T20:41:23.731Z,14.90
2023-06-01T20:43:55.212Z,14.90
2023-06-01T20:46:25.093Z,14.90
2023-06-01T20:48:56.537Z,14.80
2023-06-01T20:51:33.236Z,14.90
2023-06-01T20:54:02.770Z,14.80
2023-06-01T20:56:35.706Z,14.80
2023-06-01T20:59:32.627Z,14.80
2023-06-01T21:02:01.579Z,14.70
2023-06-01T21:04:31.155Z,14.70
2023-06-01T21:06:58.293Z,14.70
2023-06-01T21:09:26.164Z,14.70
2023-06-01T21:11:56.103Z,14.70
2023-06-01T21:14:23.412Z,14.70
2023-06-01T21:16:50.634Z,14.60
2023-06-01T21:19:17.662Z,14.40
2023-06-01T21:21:45.283Z,14.40
2023-06-01T21:24:12.858Z,14.30
2023-06-01T21:26:42.870Z,14.20
2023-06-01T21:29:10.229Z,14.20
2023-06-01T21:31:37.766Z,14.20
2023-06-01T21:34:04.793Z,14.10
2023-06-01T21:36:31.846Z,14.10
2023-06-01T21:38:59.017Z,14.00
2023-06-01T21:41:26.286Z,14.00
2023-06-01T21:43:53.566Z,14.00
2023-06-01T21:46:20.630Z,14.00
2023-06-01T21:48:47.800Z,14.00
2023-06-01T21:51:14.970Z,14.00
2023-06-01T21:53:41.970Z,14.00
2023-06-01T21:56:08.949Z,13.90
2023-06-01T21:58:38.583Z,13.90
2023-06-01T22:01:06.979Z,13.90
2023-06-01T22:03:34.647Z,13.90
2023-06-01T22:06:02.304Z,13.90
2023-06-01T22:08:29.611Z,13.80
2023-06-01T22:10:56.695Z,13.80
2023-06-01T22:13:23.736Z,13.70
2023-06-01T22:15:50.818Z,13.70
2023-06-01T22:18:17.837Z,13.70
2023-06-01T22:20:44.874Z,13.70
2023-06-01T22:23:11.949Z,13.60
2023-06-01T22:25:39.132Z,13.50
2023-06-01T22:28:06.674Z,13.50
2023-06-01T22:30:33.945Z,13.50
2023-06-01T22:33:01.772Z,13.50
2023-06-01T22:35:28.970Z,13.50
2023-06-01T22:37:56.216Z,13.50
2023-06-01T22:40:24.652Z,13.50
2023-06-01T22:42:53.595Z,13.60
2023-06-01T22:45:21.498Z,13.60
2023-06-01T22:47:49.151Z,13.60
2023-06-01T22:50:19.338Z,13.60
2023-06-01T22:52:46.857Z,13.60
2023-06-01T22:55:13.963Z,13.60
2023-06-01T22:57:40.896Z,13.60
2023-06-01T23:00:08.604Z,13.60
2023-06-01T23:02:35.680Z,13.60
2023-06-01T23:05:06.271Z,13.70
2023-06-01T23:07:33.767Z,13.70
2023-06-01T23:10:01.635Z,13.70
2023-06-01T23:12:28.985Z,13.70
2023-06-01T23:14:56.935Z,13.70
2023-06-01T23:17:25.725Z,13.70
2023-06-01T23:19:52.921Z,13.70
2023-06-01T23:22:20.289Z,13.70
2023-06-01T23:24:47.685Z,13.70
2023-06-01T23:27:14.726Z,13.70
2023-06-01T23:29:41.795Z,13.60
2023-06-01T23:32:09.076Z,13.60
2023-06-01T23:34:36.009Z,13.60
2023-06-01T23:37:03.245Z,13.50
2023-06-01T23:39:31.237Z,13.40
2023-06-01T23:41:58.319Z,13.40
2023-06-01T23:44:25.362Z,13.40
2023-06-01T23:46:52.447Z,13.40
2023-06-01T23:49:19.589Z,13.40
2023-06-01T23:51:46.633Z,13.40
2023-06-01T23:54:13.740Z,13.40
2023-06-01T23:56:41.016Z,13.30
2023-06-01T23:59:08.434Z,13.40
